createdAt,value
2023-03-05T00:01:54.974Z,96.78
2023-03-05T00:04:21.585Z,92.07
2023-03-05T00:06:48.141Z,92.07
2023-03-05T00:09:14.756Z,83.43
2023-03-05T00:11:41.385Z,88.50
2023-03-05T00:14:08.017Z,90.75
2023-03-05T00:16:34.684Z,113.38
2023-03-05T00:19:01.640Z,84.88
2023-03-05T00:21:32.490Z,97.60
2023-03-05T00:24:03.586Z,82.28
2023-03-05T00:26:31.236Z,81.03
2023-03-05T00:28:58.629Z,85.38
2023-03-05T00:31:31.289Z,80.80
2023-03-05T00:34:01.352Z,87.05
2023-03-05T00:36:28.869Z,83.63
2023-03-05T00:38:55.621Z,97.05
2023-03-05T00:41:22.417Z,80.45
2023-03-05T00:43:49.205Z,93.35
2023-03-05T00:46:16.690Z,80.60
2023-03-05T00:48:43.379Z,102.40
2023-03-05T00:51:10.192Z,88.90
2023-03-05T00:53:36.779Z,88.43
2023-03-05T00:56:05.024Z,89.70
2023-03-05T00:58:31.613Z,83.55
2023-03-05T01:01:00.113Z,93.60
2023-03-05T01:03:27.528Z,87.85
2023-03-05T01:05:55.713Z,89.95
2023-03-05T01:08:22.277Z,81.88
2023-03-05T01:10:49.031Z,88.38
2023-03-05T01:13:15.652Z,93.72
2023-03-05T01:15:42.556Z,81.88
2023-03-05T01:18:09.134Z,95.47
2023-03-05T01:20:36.055Z,94.55
2023-03-05T01:23:02.730Z,87.57
2023-03-05T01:25:29.320Z,90.68
2023-03-05T01:27:56.669Z,87.38
2023-03-05T01:30:23.399Z,90.78
2023-03-05T01:32:50.073Z,94.20
2023-03-05T01:35:20.697Z,81.53
2023-03-05T01:37:47.569Z,90.22
2023-03-05T01:40:17.383Z,93.72
2023-03-05T01:42:48.704Z,86.15
2023-03-05T01:45:17.963Z,83.18
2023-03-05T01:47:45.304Z,89.30
2023-03-05T01:50:17.285Z,92.65
2023-03-05T01:52:49.621Z,90.25
2023-03-05T01:55:37.214Z,88.03
2023-03-05T01:58:08.095Z,81.85
2023-03-05T02:00:40.370Z,91.63
2023-03-05T02:03:10.649Z,100.05
2023-03-05T02:05:39.384Z,87.80
2023-03-05T02:08:09.208Z,96.80
2023-03-05T02:10:50.831Z,90.47
2023-03-05T02:13:22.594Z,100.10
2023-03-05T02:15:49.956Z,108.75
2023-03-05T02:18:18.316Z,107.93
2023-03-05T02:20:57.281Z,88.80
2023-03-05T02:23:30.204Z,107.70
2023-03-05T02:25:56.782Z,106.30
2023-03-05T02:28:29.543Z,81.13
2023-03-05T02:30:56.259Z,99.22
2023-03-05T02:33:23.332Z,92.00
2023-03-05T02:35:50.217Z,103.57
2023-03-05T02:38:18.883Z,98.70
2023-03-05T02:40:45.622Z,95.90
2023-03-05T02:43:13.620Z,96.70
2023-03-05T02:45:40.449Z,103.60
2023-03-05T02:48:07.054Z,100.38
2023-03-05T02:50:34.340Z,86.22
2023-03-05T02:53:00.909Z,97.03
2023-03-05T02:55:28.205Z,86.22
2023-03-05T02:57:54.771Z,100.97
2023-03-05T03:00:22.545Z,90.75
2023-03-05T03:02:49.722Z,107.45
2023-03-05T03:05:16.338Z,99.78
2023-03-05T03:07:42.877Z,103.50
2023-03-05T03:10:10.435Z,105.65
2023-03-05T03:12:41.663Z,97.40
2023-03-05T03:15:09.933Z,89.65
2023-03-05T03:17:37.626Z,94.32
2023-03-05T03:20:07.662Z,103.60
2023-03-05T03:22:34.335Z,99.15
2023-03-05T03:25:01.437Z,95.22
2023-03-05T03:27:28.159Z,107.05
2023-03-05T03:29:54.744Z,94.28
2023-03-05T03:32:21.398Z,93.18
2023-03-05T03:34:48.331Z,95.13
2023-03-05T03:37:15.162Z,94.70
2023-03-05T03:39:41.713Z,87.28
2023-03-05T03:42:08.304Z,99.90
2023-03-05T03:44:34.899Z,94.30
2023-03-05T03:47:02.427Z,88.80
2023-03-05T03:49:28.996Z,97.60
2023-03-05T03:51:55.917Z,91.57
2023-03-05T03:54:22.877Z,91.10
2023-03-05T03:56:49.446Z,103.88
2023-03-05T03:59:16.206Z,87.72
2023-03-05T04:01:43.225Z,91.22
2023-03-05T04:04:11.683Z,95.25
2023-03-05T04:06:38.751Z,107.60
2023-03-05T04:09:06.099Z,97.72
2023-03-05T04:11:32.643Z,100.45
2023-03-05T04:13:59.242Z,91.57
2023-03-05T04:16:26.162Z,99.53
2023-03-05T04:18:53.103Z,99.60
2023-03-05T04:21:19.706Z,101.82
2023-03-05T04:23:46.309Z,91.50
2023-03-05T04:26:12.926Z,99.53
2023-03-05T04:28:39.621Z,103.90
2023-03-05T04:31:06.256Z,96.93
2023-03-05T04:33:33.812Z,100.10
2023-03-05T04:36:00.470Z,111.55
2023-03-05T04:38:27.100Z,98.95
2023-03-05T04:40:53.788Z,105.53
2023-03-05T04:43:20.420Z,107.35
2023-03-05T04:45:46.948Z,104.53
2023-03-05T04:48:13.704Z,89.20
2023-03-05T04:50:40.244Z,87.03
2023-03-05T04:53:06.911Z,108.47
2023-03-05T04:55:33.497Z,89.00
2023-03-05T04:58:00.010Z,94.75
2023-03-05T05:00:26.537Z,97.78
2023-03-05T05:02:53.548Z,95.45
2023-03-05T05:05:23.159Z,87.38
2023-03-05T05:07:50.159Z,101.28
2023-03-05T05:10:17.354Z,97.47
2023-03-05T05:12:43.840Z,101.70
2023-03-05T05:15:12.132Z,97.70
2023-03-05T05:17:38.854Z,102.05
2023-03-05T05:20:08.828Z,116.53
2023-03-05T05:22:35.697Z,92.40
2023-03-05T05:25:03.041Z,100.13
2023-03-05T05:27:29.660Z,104.72
2023-03-05T05:29:56.476Z,97.25
2023-03-05T05:32:24.161Z,100.10
2023-03-05T05:34:58.552Z,96.30
2023-03-05T05:37:26.638Z,90.95
2023-03-05T05:39:53.821Z,101.93
2023-03-05T05:42:22.828Z,100.60
2023-03-05T05:44:50.060Z,88.38
2023-03-05T05:47:18.232Z,99.88
2023-03-05T05:49:44.881Z,104.95
2023-03-05T05:52:11.498Z,90.82
2023-03-05T05:54:38.784Z,96.93
2023-03-05T05:57:05.982Z,104.03
2023-03-05T05:59:32.661Z,98.75
2023-03-05T06:01:59.578Z,95.53
2023-03-05T06:04:26.244Z,121.22
2023-03-05T06:06:52.774Z,94.93
2023-03-05T06:09:19.451Z,100.32
2023-03-05T06:11:46.033Z,99.40
2023-03-05T06:14:13.247Z,92.13
2023-03-05T06:16:40.393Z,99.20
2023-03-05T06:19:08.792Z,92.00
2023-03-05T06:21:35.257Z,94.68
2023-03-05T06:24:01.823Z,105.40
2023-03-05T06:26:28.271Z,94.47
2023-03-05T06:31:25.623Z,100.18
2023-03-05T06:33:55.268Z,115.10
2023-03-05T06:36:23.307Z,104.63
2023-03-05T06:38:53.040Z,93.35
2023-03-05T06:41:23.282Z,100.15
2023-03-05T06:43:50.288Z,120.20
2023-03-05T06:46:19.705Z,120.90
2023-03-05T06:48:46.536Z,111.28
2023-03-05T06:51:18.567Z,106.55
2023-03-05T06:53:48.981Z,91.78
2023-03-05T06:56:16.723Z,112.07
2023-03-05T06:58:45.784Z,112.22
2023-03-05T07:01:13.116Z,113.40
2023-03-05T07:03:40.333Z,93.38
2023-03-05T07:06:08.968Z,121.35
2023-03-05T07:08:36.476Z,109.07
2023-03-05T07:11:03.991Z,107.40
2023-03-05T07:13:30.521Z,113.75
2023-03-05T07:15:57.153Z,105.80
2023-03-05T07:18:23.629Z,115.07
2023-03-05T07:20:50.120Z,99.95
2023-03-05T07:23:16.625Z,108.00
2023-03-05T07:25:43.159Z,126.47
2023-03-05T07:28:10.657Z,111.40
2023-03-05T07:30:37.254Z,113.97
2023-03-05T07:33:03.851Z,130.10
2023-03-05T07:35:30.348Z,98.90
2023-03-05T07:37:56.980Z,104.88
2023-03-05T07:40:23.559Z,99.63
2023-03-05T07:42:50.114Z,120.57
2023-03-05T07:45:24.375Z,114.22
2023-03-05T07:47:52.551Z,119.13
2023-03-05T07:50:19.176Z,122.18
2023-03-05T07:52:45.689Z,114.38
2023-03-05T07:57:39.001Z,111.97
2023-03-05T08:00:07.001Z,111.57
2023-03-05T08:02:38.196Z,124.28
2023-03-05T08:05:05.039Z,107.95
2023-03-05T08:07:31.541Z,109.63
2023-03-05T08:09:58.055Z,116.38
2023-03-05T08:12:24.595Z,91.55
2023-03-05T08:14:51.556Z,109.88
2023-03-05T08:17:18.269Z,114.55
2023-03-05T08:19:44.752Z,110.80
2023-03-05T08:22:11.479Z,105.13
2023-03-05T08:24:38.009Z,99.22
2023-03-05T08:29:30.852Z,109.60
2023-03-05T08:31:57.306Z,109.90
2023-03-05T08:36:50.251Z,99.80
2023-03-05T08:39:17.168Z,107.20
2023-03-05T08:41:43.670Z,90.78
2023-03-05T08:44:10.313Z,87.60
2023-03-05T08:46:39.603Z,96.90
2023-03-05T08:49:07.394Z,101.85
2023-03-05T08:51:34.760Z,98.22
2023-03-05T08:54:02.493Z,96.63
2023-03-05T08:56:31.213Z,95.53
2023-03-05T08:58:57.693Z,96.97
2023-03-05T09:03:51.027Z,79.28
2023-03-05T09:06:17.617Z,96.72
2023-03-05T09:08:44.067Z,93.53
2023-03-05T09:13:39.369Z,95.15
2023-03-05T09:16:09.057Z,76.93
2023-03-05T09:18:36.675Z,86.75
2023-03-05T09:21:14.878Z,90.88
2023-03-05T09:23:42.203Z,84.13
2023-03-05T09:26:12.020Z,84.40
2023-03-05T09:28:39.759Z,80.70
2023-03-05T09:31:08.017Z,93.55
2023-03-05T09:33:36.031Z,90.57
2023-03-05T09:36:04.502Z,83.93
2023-03-05T09:38:31.370Z,80.82
2023-03-05T09:41:16.942Z,79.88
2023-03-05T09:43:55.325Z,85.07
2023-03-05T09:46:36.424Z,69.70
2023-03-05T09:49:11.500Z,91.03
2023-03-05T09:51:41.378Z,68.10
2023-03-05T09:54:30.306Z,75.55
2023-03-05T09:57:02.646Z,72.10
2023-03-05T09:59:35.948Z,63.72
2023-03-05T10:02:17.045Z,82.07
2023-03-05T10:04:58.303Z,66.75
2023-03-05T10:07:30.727Z,64.88
2023-03-05T10:10:05.134Z,68.28
2023-03-05T10:12:48.432Z,70.35
2023-03-05T10:15:16.980Z,67.88
2023-03-05T10:17:58.699Z,67.15
2023-03-05T10:20:39.129Z,70.75
2023-03-05T10:23:08.732Z,67.72
2023-03-05T10:25:53.353Z,64.85
2023-03-05T10:28:43.873Z,60.72
2023-03-05T10:31:25.940Z,69.43
2023-03-05T10:34:32.547Z,55.47
2023-03-05T10:37:09.703Z,61.50
2023-03-05T10:40:05.954Z,67.53
2023-03-05T10:42:41.591Z,55.80
2023-03-05T10:45:15.469Z,57.08
2023-03-05T10:47:55.495Z,61.03
2023-03-05T10:50:27.828Z,54.58
2023-03-05T10:53:15.229Z,49.38
2023-03-05T10:55:42.109Z,70.68
2023-03-05T10:58:14.996Z,57.47
2023-03-05T11:01:18.847Z,54.38
2023-03-05T11:03:51.175Z,54.33
2023-03-05T11:06:27.127Z,57.00
2023-03-05T11:08:53.777Z,46.90
2023-03-05T11:14:01.011Z,56.78
2023-03-05T11:16:31.540Z,48.83
2023-03-05T11:19:17.616Z,47.90
2023-03-05T11:21:45.627Z,50.92
2023-03-05T11:24:16.227Z,55.40
2023-03-05T11:26:49.921Z,44.05
2023-03-05T11:29:31.030Z,42.80
2023-03-05T11:32:35.468Z,43.10
2023-03-05T11:35:02.017Z,45.95
2023-03-05T11:40:18.105Z,43.90
2023-03-05T11:42:45.190Z,48.70
2023-03-05T11:45:16.972Z,44.58
2023-03-05T11:47:52.101Z,38.63
2023-03-05T11:50:35.825Z,34.33
2023-03-05T11:53:07.517Z,36.20
2023-03-05T11:55:37.073Z,38.28
2023-03-05T11:58:27.152Z,32.67
2023-03-05T12:00:53.623Z,41.90
2023-03-05T12:06:27.445Z,31.38
2023-03-05T12:08:57.635Z,37.42
2023-03-05T12:11:28.999Z,43.58
2023-03-05T12:14:19.342Z,32.17
2023-03-05T12:16:50.791Z,35.75
2023-03-05T12:19:31.904Z,31.75
2023-03-05T12:21:59.307Z,39.50
2023-03-05T12:24:28.113Z,30.98
2023-03-05T12:27:06.413Z,30.35
2023-03-05T12:29:32.843Z,32.60
2023-03-05T12:34:40.900Z,27.50
2023-03-05T12:37:20.601Z,33.33
2023-03-05T12:39:52.589Z,34.72
2023-03-05T12:42:45.161Z,39.33
2023-03-05T12:45:11.789Z,31.30
2023-03-05T12:48:13.492Z,27.70
2023-03-05T12:50:40.026Z,25.73
2023-03-05T12:55:48.542Z,26.65
2023-03-05T12:58:21.202Z,26.85
2023-03-05T13:01:02.497Z,24.15
2023-03-05T13:03:33.556Z,23.15
2023-03-05T13:06:00.877Z,21.75
2023-03-05T13:08:31.619Z,21.52
2023-03-05T13:11:06.192Z,20.92
2023-03-05T13:13:38.722Z,26.00
2023-03-05T13:16:05.713Z,20.80
2023-03-05T13:18:33.077Z,19.10
2023-03-05T13:21:12.215Z,26.58
2023-03-05T13:23:57.605Z,22.77
2023-03-05T13:26:28.657Z,21.70
2023-03-05T13:29:18.828Z,15.25
2023-03-05T13:32:01.728Z,19.70
2023-03-05T13:34:44.604Z,20.17
2023-03-05T13:37:20.974Z,19.45
2023-03-05T13:40:00.440Z,20.58
2023-03-05T13:42:34.473Z,18.20
2023-03-05T13:45:04.707Z,19.08
2023-03-05T13:47:34.005Z,24.38
2023-03-05T13:50:06.519Z,25.13
2023-03-05T13:52:36.049Z,26.38
2023-03-05T13:55:11.844Z,22.58
2023-03-05T13:57:44.556Z,20.38
2023-03-05T14:00:31.111Z,21.48
2023-03-05T14:03:01.042Z,25.57
2023-03-05T14:05:30.886Z,26.13
2023-03-05T14:07:57.650Z,24.20
2023-03-05T14:10:29.313Z,23.92
2023-03-05T14:12:56.760Z,27.13
2023-03-05T14:15:28.927Z,24.35
2023-03-05T14:18:12.170Z,24.50
2023-03-05T14:20:40.450Z,24.50
2023-03-05T14:23:32.887Z,22.15
2023-03-05T14:26:20.808Z,31.02
2023-03-05T14:28:52.941Z,26.15
2023-03-05T14:31:21.095Z,27.52
2023-03-05T14:33:49.494Z,25.95
2023-03-05T14:36:23.455Z,38.15
2023-03-05T14:38:51.805Z,24.45
2023-03-05T14:41:22.588Z,29.35
2023-03-05T14:43:49.067Z,24.23
2023-03-05T14:48:42.176Z,23.88
2023-03-05T14:51:10.771Z,24.33
2023-03-05T14:53:46.343Z,22.02
2023-03-05T14:56:22.362Z,26.55
2023-03-05T14:58:48.951Z,27.38
2023-03-05T15:01:15.540Z,23.88
2023-03-05T15:03:42.396Z,25.75
2023-03-05T15:06:18.653Z,26.17
2023-03-05T15:08:45.486Z,18.52
2023-03-05T15:11:12.020Z,25.58
2023-03-05T15:13:38.594Z,26.35
2023-03-05T15:16:06.813Z,27.98
2023-03-05T15:18:33.413Z,27.05
2023-03-05T15:21:00.220Z,26.52
2023-03-05T15:23:29.705Z,29.45
2023-03-05T15:25:56.205Z,35.03
2023-03-05T15:30:49.157Z,27.83
2023-03-05T15:33:17.016Z,34.92
2023-03-05T15:35:44.304Z,36.70
2023-03-05T15:38:10.975Z,29.13
2023-03-05T15:40:37.459Z,31.60
2023-03-05T15:45:33.754Z,43.17
2023-03-05T15:48:00.298Z,33.67
2023-03-05T15:50:28.219Z,41.22
2023-03-05T15:55:21.374Z,42.72
2023-03-05T15:57:50.257Z,39.78
2023-03-05T16:00:23.785Z,41.72
2023-03-05T16:02:52.326Z,33.83
2023-03-05T16:05:18.758Z,35.22
2023-03-05T16:10:17.443Z,40.08
2023-03-05T16:12:47.255Z,32.30
2023-03-05T16:15:16.027Z,33.55
2023-03-05T16:17:45.296Z,32.10
2023-03-05T16:20:12.672Z,39.03
2023-03-05T16:22:39.170Z,34.63
2023-03-05T16:25:06.150Z,44.28
2023-03-05T16:27:32.809Z,30.52
2023-03-05T16:29:59.275Z,38.35
2023-03-05T16:34:52.454Z,27.40
2023-03-05T16:39:46.964Z,28.27
2023-03-05T16:42:13.859Z,26.95
2023-03-05T16:44:41.598Z,40.78
2023-03-05T16:47:09.277Z,31.10
2023-03-05T16:49:36.631Z,30.10
2023-03-05T16:52:16.445Z,32.45
2023-03-05T16:54:45.256Z,31.60
2023-03-05T16:57:12.153Z,31.83
2023-03-05T16:59:38.764Z,33.75
2023-03-05T17:02:06.172Z,31.08
2023-03-05T17:04:32.876Z,27.90
2023-03-05T17:06:59.504Z,35.58
2023-03-05T17:09:26.052Z,42.80
2023-03-05T17:11:54.040Z,35.85
2023-03-05T17:14:20.813Z,32.88
2023-03-05T17:16:47.608Z,36.65
2023-03-05T17:19:14.630Z,31.98
2023-03-05T17:21:42.477Z,36.92
2023-03-05T17:24:09.945Z,33.35
2023-03-05T17:26:36.944Z,38.00
2023-03-05T17:29:04.950Z,31.85
2023-03-05T17:31:31.825Z,35.05
2023-03-05T17:33:58.426Z,36.90
2023-03-05T17:36:25.666Z,35.75
2023-03-05T17:38:53.956Z,28.45
2023-03-05T17:41:21.004Z,26.33
2023-03-05T17:43:47.851Z,29.02
2023-03-05T17:46:14.859Z,28.20
2023-03-05T17:48:41.697Z,34.22
2023-03-05T17:51:11.421Z,40.55
2023-03-05T17:53:39.379Z,32.55
2023-03-05T17:56:08.267Z,34.45
2023-03-05T17:58:34.959Z,28.38
2023-03-05T18:01:01.544Z,32.95
2023-03-05T18:03:28.003Z,31.85
2023-03-05T18:08:21.039Z,35.47
2023-03-05T18:10:47.642Z,33.97
2023-03-05T18:13:14.281Z,36.28
2023-03-05T18:15:47.321Z,42.10
2023-03-05T18:18:18.155Z,44.58
2023-03-05T18:20:45.815Z,41.53
2023-03-05T18:23:12.640Z,50.40
2023-03-05T18:25:39.264Z,43.83
2023-03-05T18:28:08.376Z,37.38
2023-03-05T18:30:35.480Z,32.78
2023-03-05T18:33:02.202Z,34.42
2023-03-05T18:35:29.310Z,33.40
2023-03-05T18:37:56.759Z,37.03
2023-03-05T18:40:25.896Z,32.03
2023-03-05T18:42:52.621Z,38.42
2023-03-05T18:45:20.546Z,34.35
2023-03-05T18:47:47.942Z,29.90
2023-03-05T18:50:18.495Z,38.70
2023-03-05T18:52:45.792Z,37.63
2023-03-05T18:55:16.040Z,37.22
2023-03-05T18:57:42.529Z,36.60
2023-03-05T19:00:13.038Z,45.38
2023-03-05T19:02:39.519Z,35.83
2023-03-05T19:05:06.292Z,41.65
2023-03-05T19:07:34.918Z,36.63
2023-03-05T19:10:07.454Z,44.78
2023-03-05T19:12:38.293Z,38.42
2023-03-05T19:15:05.823Z,38.85
2023-03-05T19:17:32.766Z,41.30
2023-03-05T19:19:59.712Z,38.38
2023-03-05T19:22:28.431Z,44.67
2023-03-05T19:24:55.059Z,45.25
2023-03-05T19:27:21.528Z,44.95
2023-03-05T19:32:17.672Z,44.85
2023-03-05T19:34:47.636Z,51.50
2023-03-05T19:37:14.870Z,49.78
2023-03-05T19:39:42.267Z,47.65
2023-03-05T19:42:08.839Z,49.33
2023-03-05T19:44:35.341Z,47.28
2023-03-05T19:47:01.916Z,51.40
2023-03-05T19:49:28.719Z,45.47
2023-03-05T19:51:55.607Z,49.20
2023-03-05T19:54:22.929Z,49.80
2023-03-05T19:56:50.838Z,58.60
2023-03-05T19:59:21.050Z,52.92
2023-03-05T20:01:48.731Z,49.58
2023-03-05T20:04:18.589Z,55.22
2023-03-05T20:06:45.436Z,57.60
2023-03-05T20:09:12.119Z,48.90
2023-03-05T20:11:39.535Z,52.05
2023-03-05T20:14:06.802Z,45.22
2023-03-05T20:16:35.182Z,46.88
2023-03-05T20:19:04.577Z,48.90
2023-03-05T20:21:34.406Z,43.05
2023-03-05T20:24:09.489Z,49.25
2023-03-05T20:26:38.665Z,55.90
2023-03-05T20:29:06.235Z,42.63
2023-03-05T20:31:36.716Z,53.22
2023-03-05T20:34:09.030Z,52.22
2023-03-05T20:36:35.853Z,46.03
2023-03-05T20:39:04.535Z,46.80
2023-03-05T20:41:31.559Z,47.08
2023-03-05T20:43:58.112Z,51.63
2023-03-05T20:46:27.407Z,51.90
2023-03-05T20:48:57.608Z,51.17
2023-03-05T20:51:45.994Z,52.40
2023-03-05T20:54:13.334Z,54.67
2023-03-05T20:56:39.913Z,52.10
2023-03-05T20:59:08.714Z,56.15
2023-03-05T21:01:37.511Z,51.60
2023-03-05T21:04:04.626Z,51.33
2023-03-05T21:06:32.895Z,57.22
2023-03-05T21:09:00.121Z,52.60
2023-03-05T21:11:27.959Z,51.08
2023-03-05T21:13:54.458Z,49.00
2023-03-05T21:16:24.668Z,48.13
2023-03-05T21:18:52.318Z,48.17
2023-03-05T21:21:19.555Z,45.70
2023-03-05T21:23:46.977Z,51.95
2023-03-05T21:26:13.756Z,50.58
2023-03-05T21:28:41.005Z,44.85
2023-03-05T21:31:10.256Z,54.45
2023-03-05T21:33:37.231Z,47.67
2023-03-05T21:36:04.554Z,49.47
2023-03-05T21:38:33.889Z,45.17
2023-03-05T21:41:01.765Z,45.85
2023-03-05T21:43:28.851Z,52.47
2023-03-05T21:45:57.196Z,45.83
2023-03-05T21:48:24.948Z,50.33
2023-03-05T21:50:51.545Z,43.15
2023-03-05T21:53:19.104Z,50.53
2023-03-05T21:56:05.132Z,57.85
2023-03-05T21:58:33.590Z,51.25
2023-03-05T22:01:00.836Z,45.15
2023-03-05T22:03:28.498Z,47.75
2023-03-05T22:05:55.483Z,49.55
2023-03-05T22:08:22.641Z,47.80
2023-03-05T22:10:50.295Z,46.78
2023-03-05T22:13:17.861Z,49.67
2023-03-05T22:15:48.308Z,50.13
2023-03-05T22:18:17.714Z,52.00
2023-03-05T22:20:44.925Z,51.80
2023-03-05T22:23:12.543Z,49.10
2023-03-05T22:25:39.612Z,46.67
2023-03-05T22:28:06.937Z,56.10
2023-03-05T22:30:33.541Z,49.08
2023-03-05T22:33:01.971Z,52.85
2023-03-05T22:35:29.324Z,51.85
2023-03-05T22:37:55.831Z,52.80
2023-03-05T22:40:24.000Z,51.80
2023-03-05T22:42:50.732Z,50.55
2023-03-05T22:45:18.031Z,48.22
2023-03-05T22:47:49.334Z,53.70
2023-03-05T22:50:19.441Z,54.13
2023-03-05T22:52:46.386Z,53.97
2023-03-05T22:55:15.345Z,53.97
2023-03-05T22:57:42.711Z,49.25
2023-03-05T23:00:14.370Z,52.17
2023-03-05T23:18:10.417Z,43.45
2023-03-05T23:20:38.446Z,48.40
2023-03-05T23:23:04.995Z,43.88
2023-03-05T23:25:33.905Z,53.80
2023-03-05T23:28:01.749Z,47.72
2023-03-05T23:30:29.937Z,47.50
2023-03-05T23:32:59.983Z,48.70
2023-03-05T23:35:30.019Z,54.17
2023-03-05T23:37:58.972Z,48.85
2023-03-05T23:40:28.272Z,52.53
2023-03-05T23:42:55.051Z,46.92
2023-03-05T23:45:22.732Z,51.88
2023-03-05T23:47:51.143Z,56.15
2023-03-05T23:50:21.193Z,53.25
2023-03-05T23:52:48.560Z,50.80
2023-03-05T23:55:18.321Z,44.67
2023-03-05T23:57:47.217Z,44.63
